To NAV CANADA Home Page Login to a new session Search on AWWS site Feedback and Comments Disclaimer Vers la page française équivalente Tips FAQ What's new on the site To the Forecasts and Observations / NOTAM section To "File a Flight Plan" website Publications and other links Update of the User's profile FIC Telephone Numbers My Weather Data Folder Route Weather Data Regional Weather Data Local Weather Data To the Forecasts and Observations / NOTAM section
Request Generated 10/17/2017 at 01:53:49 UTC . Weather information available at that time is displayed.

METAR/TAF

SASKATOON/JOHN G. DIEFENBAKER INTL/SK    

METAR CYXE 170100Z 20005KT 15SM SCT250 10/M01 A2975 RMK CI3 SLP097
DENSITY ALT 1700FT=
METAR CYXE 170000Z 22008KT 15SM SCT250 12/M01 A2977 RMK CI3 SLP102
DENSITY ALT 1900FT=
METAR CYXE 162300Z 24011KT 15SM FEW270 17/M02 A2979 RMK CI1 SLP104
DENSITY ALT 2400FT=

TAF CYXE 162338Z 1700/1724 24012KT P6SM FEW250
BECMG 1702/1704 16008KT
FM171200 23010KT P6SM FEW100 SCT250
BECMG 1716/1718 20015G25KT
RMK NXT FCST BY 170600Z=
Your time UTC time
Weather data provided by Environment Canada and NAV CANADA